createdAt,value
2022-11-26T00:00:56.139Z,10.32
2022-11-26T00:03:24.587Z,10.33
2022-11-26T00:05:57.781Z,10.32
2022-11-26T00:08:34.569Z,10.36
2022-11-26T00:11:03.758Z,10.34
2022-11-26T00:13:32.479Z,10.33
2022-11-26T00:16:00.595Z,10.35
2022-11-26T00:18:28.659Z,10.37
2022-11-26T00:21:00.935Z,10.42
2022-11-26T00:23:30.889Z,10.41
2022-11-26T00:26:01.573Z,10.41
2022-11-26T00:28:32.794Z,10.42
2022-11-26T00:31:03.954Z,10.44
2022-11-26T00:33:33.128Z,10.53
2022-11-26T00:36:07.721Z,10.55
2022-11-26T00:38:37.171Z,10.65
2022-11-26T00:41:05.494Z,10.54
2022-11-26T00:43:33.596Z,10.49
2022-11-26T00:46:02.529Z,10.51
2022-11-26T00:48:31.894Z,10.52
2022-11-26T00:51:00.193Z,10.51
2022-11-26T00:53:29.361Z,10.49
2022-11-26T00:55:59.132Z,10.49
2022-11-26T00:58:30.554Z,10.45
2022-11-26T01:01:00.684Z,10.48
2022-11-26T01:03:30.338Z,10.45
2022-11-26T01:06:02.267Z,10.46
2022-11-26T01:08:34.009Z,10.46
2022-11-26T01:11:06.027Z,10.50
2022-11-26T01:13:34.752Z,10.43
2022-11-26T01:16:14.410Z,10.46
2022-11-26T01:18:42.624Z,10.39
2022-11-26T01:21:11.256Z,10.42
2022-11-26T01:23:39.565Z,10.37
2022-11-26T01:26:16.902Z,10.36
2022-11-26T01:28:45.636Z,10.38
2022-11-26T01:31:17.489Z,10.39
2022-11-26T01:33:46.291Z,10.39
2022-11-26T01:36:24.496Z,10.44
2022-11-26T01:38:53.106Z,10.38
2022-11-26T01:41:42.148Z,10.33
2022-11-26T01:44:19.849Z,10.30
2022-11-26T01:46:49.509Z,10.34
2022-11-26T01:49:22.152Z,10.31
2022-11-26T01:51:57.079Z,10.36
2022-11-26T01:54:25.729Z,10.34
2022-11-26T01:56:57.951Z,10.30
2022-11-26T01:59:31.298Z,10.23
2022-11-26T02:02:01.484Z,10.08
2022-11-26T02:04:34.163Z,10.14
2022-11-26T02:07:02.464Z,10.13
2022-11-26T02:09:31.952Z,10.18
2022-11-26T02:12:01.635Z,10.23
2022-11-26T02:14:33.468Z,10.27
2022-11-26T02:17:21.193Z,10.28
2022-11-26T02:20:30.119Z,10.24
2022-11-26T02:23:43.965Z,10.23
2022-11-26T02:27:03.681Z,10.30
2022-11-26T02:30:06.823Z,10.34
2022-11-26T02:32:54.364Z,10.42
2022-11-26T02:35:31.661Z,10.40
2022-11-26T02:38:04.186Z,10.45
2022-11-26T02:40:32.789Z,10.37
2022-11-26T02:43:01.130Z,10.38
2022-11-26T02:45:34.957Z,10.33
2022-11-26T02:48:07.982Z,10.41
2022-11-26T02:50:40.430Z,10.39
2022-11-26T02:53:10.499Z,10.32
2022-11-26T02:55:44.202Z,10.36
2022-11-26T02:58:12.433Z,10.31
2022-11-26T03:00:43.882Z,10.34
2022-11-26T03:03:23.733Z,10.31
2022-11-26T03:05:55.574Z,10.32
2022-11-26T03:08:25.594Z,10.30
2022-11-26T03:10:53.887Z,10.27
2022-11-26T03:13:22.203Z,10.27
2022-11-26T03:15:51.752Z,10.25
2022-11-26T03:18:20.045Z,10.23
2022-11-26T03:20:52.131Z,10.16
2022-11-26T03:23:20.597Z,10.12
2022-11-26T03:25:48.823Z,10.16
2022-11-26T03:28:16.979Z,10.07
2022-11-26T03:30:45.117Z,10.16
2022-11-26T03:33:14.579Z,10.13
2022-11-26T03:35:42.859Z,10.07
2022-11-26T03:38:10.992Z,10.08
2022-11-26T03:40:39.148Z,10.10
2022-11-26T03:43:07.314Z,10.13
2022-11-26T03:45:35.495Z,10.16
2022-11-26T03:48:03.637Z,10.21
2022-11-26T03:50:33.116Z,10.21
2022-11-26T03:53:01.256Z,10.16
2022-11-26T03:55:29.386Z,10.14
2022-11-26T03:57:57.513Z,10.02
2022-11-26T04:00:25.755Z,9.98
2022-11-26T04:02:53.941Z,9.98
2022-11-26T04:05:22.135Z,9.96
2022-11-26T04:07:51.684Z,10.00
2022-11-26T04:10:20.064Z,10.04
2022-11-26T04:12:48.159Z,10.04
2022-11-26T04:15:16.450Z,10.08
2022-11-26T04:17:44.601Z,10.04
2022-11-26T04:20:13.641Z,10.10
2022-11-26T04:22:41.790Z,10.07
2022-11-26T04:25:11.866Z,10.11
2022-11-26T04:27:40.219Z,10.04
2022-11-26T04:30:10.280Z,10.08
2022-11-26T04:32:39.869Z,10.16
2022-11-26T04:35:09.467Z,10.14
2022-11-26T04:37:37.819Z,10.07
2022-11-26T04:40:08.256Z,10.05
2022-11-26T04:42:37.800Z,10.09
2022-11-26T04:45:06.945Z,10.03
2022-11-26T04:47:37.815Z,9.83
2022-11-26T04:50:10.953Z,9.83
2022-11-26T04:52:40.361Z,9.83
2022-11-26T04:55:11.726Z,9.87
2022-11-26T04:57:41.298Z,9.81
2022-11-26T05:00:11.996Z,9.80
2022-11-26T05:02:40.315Z,9.73
2022-11-26T05:05:09.374Z,9.66
2022-11-26T05:07:37.567Z,9.66
2022-11-26T05:10:08.573Z,9.58
2022-11-26T05:12:36.903Z,9.54
2022-11-26T05:15:07.983Z,9.57
2022-11-26T05:17:36.137Z,9.49
2022-11-26T05:20:05.084Z,9.52
2022-11-26T05:22:33.306Z,9.49
2022-11-26T05:25:01.474Z,9.37
2022-11-26T05:27:29.611Z,9.34
2022-11-26T05:29:57.737Z,9.31
2022-11-26T05:32:27.685Z,9.37
2022-11-26T05:35:00.032Z,9.33
2022-11-26T05:37:28.617Z,9.32
2022-11-26T05:39:56.734Z,9.26
2022-11-26T05:42:24.858Z,9.33
2022-11-26T05:44:53.122Z,9.30
2022-11-26T05:47:21.258Z,9.25
2022-11-26T05:49:50.713Z,9.20
2022-11-26T05:52:19.026Z,9.15
2022-11-26T05:54:47.229Z,9.27
2022-11-26T05:57:15.631Z,9.18
2022-11-26T05:59:43.918Z,9.11
2022-11-26T06:02:12.144Z,9.01
2022-11-26T06:04:40.684Z,8.96
2022-11-26T06:07:10.856Z,8.96
2022-11-26T06:09:39.178Z,9.00
2022-11-26T06:12:07.803Z,8.93
2022-11-26T06:14:40.306Z,8.98
2022-11-26T06:17:09.772Z,8.97
2022-11-26T06:19:37.970Z,8.94
2022-11-26T06:22:06.139Z,9.06
2022-11-26T06:24:36.586Z,9.07
2022-11-26T06:27:05.290Z,9.05
2022-11-26T06:29:33.733Z,9.02
2022-11-26T06:32:01.866Z,9.15
2022-11-26T06:34:36.373Z,9.09
2022-11-26T06:37:05.039Z,9.09
2022-11-26T06:39:59.424Z,9.11
2022-11-26T06:42:33.141Z,9.09
2022-11-26T06:45:01.275Z,9.10
2022-11-26T06:47:29.477Z,9.15
2022-11-26T06:49:57.586Z,9.19
2022-11-26T06:52:25.766Z,9.06
2022-11-26T06:54:53.911Z,9.14
2022-11-26T06:57:23.335Z,9.05
2022-11-26T06:59:53.097Z,9.02
2022-11-26T07:02:21.408Z,8.98
2022-11-26T07:04:49.518Z,8.98
2022-11-26T07:07:17.708Z,9.03
2022-11-26T07:09:45.918Z,8.96
2022-11-26T07:12:14.190Z,9.02
2022-11-26T07:14:44.433Z,8.98
2022-11-26T07:17:12.607Z,8.89
2022-11-26T07:19:40.786Z,8.94
2022-11-26T07:22:08.963Z,9.02
2022-11-26T07:24:37.407Z,8.94
2022-11-26T07:27:05.788Z,8.88
2022-11-26T07:29:34.119Z,8.90
2022-11-26T07:32:03.740Z,8.85
2022-11-26T07:34:32.128Z,8.83
2022-11-26T07:37:00.324Z,8.80
2022-11-26T07:39:28.490Z,8.86
2022-11-26T07:41:56.607Z,8.87
2022-11-26T07:44:24.760Z,8.85
2022-11-26T07:46:52.897Z,8.82
2022-11-26T07:49:22.370Z,8.79
2022-11-26T07:51:50.494Z,8.78
2022-11-26T07:54:18.657Z,8.80
2022-11-26T07:56:52.685Z,8.79
2022-11-26T07:59:24.106Z,8.83
2022-11-26T08:01:53.016Z,8.90
2022-11-26T08:04:24.174Z,9.05
2022-11-26T08:06:52.504Z,9.09
2022-11-26T08:09:27.535Z,9.14
2022-11-26T08:11:57.159Z,9.20
2022-11-26T08:14:25.541Z,9.24
2022-11-26T08:16:53.822Z,9.23
2022-11-26T08:19:23.622Z,9.29
2022-11-26T08:21:51.816Z,9.41
2022-11-26T08:24:22.049Z,9.54
2022-11-26T08:26:51.715Z,9.67
2022-11-26T08:29:19.941Z,9.68
2022-11-26T08:31:49.537Z,9.73
2022-11-26T08:34:18.203Z,9.72
2022-11-26T08:36:47.815Z,9.82
2022-11-26T08:39:17.683Z,9.80
2022-11-26T08:41:52.024Z,9.84
2022-11-26T08:44:21.553Z,9.86
2022-11-26T08:46:50.225Z,9.91
2022-11-26T08:49:18.682Z,9.94
2022-11-26T08:51:48.256Z,10.01
2022-11-26T08:54:16.500Z,10.13
2022-11-26T08:56:44.765Z,10.19
2022-11-26T08:59:12.871Z,10.25
2022-11-26T09:01:41.409Z,10.33
2022-11-26T09:04:09.531Z,10.45
2022-11-26T09:06:37.841Z,10.47
2022-11-26T09:09:17.599Z,10.58
2022-11-26T09:11:50.041Z,10.74
2022-11-26T09:14:21.254Z,10.83
2022-11-26T09:16:49.596Z,10.90
2022-11-26T09:19:19.031Z,11.00
2022-11-26T09:21:48.466Z,11.13
2022-11-26T09:24:19.787Z,11.20
2022-11-26T09:26:48.929Z,11.23
2022-11-26T09:29:20.154Z,11.30
2022-11-26T09:34:44.340Z,11.43
2022-11-26T09:37:12.597Z,11.51
2022-11-26T09:39:42.059Z,11.59
2022-11-26T09:42:27.463Z,11.64
2022-11-26T09:45:09.847Z,11.71
2022-11-26T09:47:42.691Z,11.77
2022-11-26T09:50:27.452Z,11.81
2022-11-26T09:53:01.461Z,11.85
2022-11-26T09:55:34.572Z,11.96
2022-11-26T09:58:12.266Z,12.03
2022-11-26T10:00:44.889Z,12.09
2022-11-26T10:03:17.236Z,12.18
2022-11-26T10:05:57.164Z,12.17
2022-11-26T10:12:26.079Z,12.23
2022-11-26T10:15:04.365Z,12.21
2022-11-26T10:17:44.556Z,12.24
2022-11-26T10:21:08.066Z,12.22
2022-11-26T10:23:45.540Z,12.23
2022-11-26T10:26:18.158Z,12.27
2022-11-26T10:28:50.328Z,12.38
2022-11-26T10:31:23.168Z,12.46
2022-11-26T10:33:56.875Z,12.45
2022-11-26T10:36:29.827Z,12.57
2022-11-26T10:38:58.017Z,12.68
2022-11-26T10:41:31.107Z,12.81
2022-11-26T10:44:30.423Z,12.94
2022-11-26T10:46:59.788Z,12.94
2022-11-26T10:49:31.185Z,12.99
2022-11-26T10:52:03.523Z,13.00
2022-11-26T10:54:36.046Z,13.12
2022-11-26T10:57:14.759Z,13.22
2022-11-26T10:59:53.019Z,13.07
2022-11-26T11:02:33.971Z,13.17
2022-11-26T11:05:06.819Z,13.18
2022-11-26T11:07:44.134Z,12.97
2022-11-26T11:10:18.572Z,13.04
2022-11-26T11:12:51.146Z,12.90
2022-11-26T11:15:25.274Z,12.92
2022-11-26T11:17:59.973Z,13.01
2022-11-26T11:20:36.130Z,12.99
2022-11-26T11:23:35.008Z,12.76
2022-11-26T11:26:41.536Z,12.83
2022-11-26T11:29:27.529Z,12.83
2022-11-26T11:31:58.766Z,12.87
2022-11-26T11:34:32.774Z,12.87
2022-11-26T11:37:03.606Z,13.03
2022-11-26T11:39:34.784Z,12.94
2022-11-26T11:42:07.555Z,12.90
2022-11-26T11:44:43.971Z,13.01
2022-11-26T11:47:35.240Z,13.07
2022-11-26T11:50:21.916Z,13.09
2022-11-26T11:53:08.661Z,13.08
2022-11-26T11:55:59.453Z,12.97
2022-11-26T11:58:54.997Z,13.13
2022-11-26T12:01:43.773Z,13.20
2022-11-26T12:04:44.166Z,13.27
2022-11-26T12:07:36.585Z,13.29
2022-11-26T12:10:15.009Z,13.32
2022-11-26T12:12:47.679Z,13.40
2022-11-26T12:15:27.309Z,13.35
2022-11-26T12:18:04.844Z,13.36
2022-11-26T12:20:41.178Z,13.34
2022-11-26T12:23:26.959Z,13.34
2022-11-26T12:26:01.550Z,13.32
2022-11-26T12:28:32.879Z,13.29
2022-11-26T12:31:06.643Z,13.35
2022-11-26T12:33:43.444Z,13.40
2022-11-26T12:36:23.452Z,13.32
2022-11-26T12:38:55.170Z,13.25
2022-11-26T12:41:28.464Z,13.12
2022-11-26T12:44:06.278Z,13.14
2022-11-26T12:46:44.688Z,13.11
2022-11-26T12:49:29.111Z,13.05
2022-11-26T12:52:17.166Z,12.92
2022-11-26T12:54:57.705Z,12.99
2022-11-26T12:57:33.684Z,12.87
2022-11-26T13:00:08.685Z,12.93
2022-11-26T13:02:41.254Z,12.94
2022-11-26T13:05:16.224Z,12.89
2022-11-26T13:08:07.237Z,12.88
2022-11-26T13:10:53.222Z,12.82
2022-11-26T13:13:33.578Z,12.73
2022-11-26T13:16:10.504Z,12.74
2022-11-26T13:18:43.986Z,12.74
2022-11-26T13:21:39.854Z,12.67
2022-11-26T13:24:44.314Z,12.60
2022-11-26T13:27:39.191Z,12.61
2022-11-26T13:30:21.054Z,12.56
2022-11-26T13:33:27.217Z,12.58
2022-11-26T13:36:37.825Z,12.58
2022-11-26T13:39:35.140Z,12.60
2022-11-26T13:42:27.181Z,12.65
2022-11-26T13:45:40.398Z,12.59
2022-11-26T13:48:14.116Z,12.49
2022-11-26T13:50:48.151Z,12.55
2022-11-26T13:53:26.823Z,12.52
2022-11-26T13:56:01.837Z,12.52
2022-11-26T13:58:34.463Z,12.55
2022-11-26T14:01:36.949Z,12.55
2022-11-26T14:04:08.572Z,12.55
2022-11-26T14:06:37.465Z,13.03
2022-11-26T14:09:07.107Z,12.70
2022-11-26T14:11:57.949Z,12.48
2022-11-26T14:14:37.973Z,12.40
2022-11-26T14:17:18.783Z,12.44
2022-11-26T14:20:11.482Z,12.45
2022-11-26T14:22:40.274Z,12.50
2022-11-26T14:25:13.286Z,12.53
2022-11-26T14:27:55.643Z,12.55
2022-11-26T14:30:32.334Z,12.55
2022-11-26T14:33:15.678Z,12.49
2022-11-26T14:35:55.604Z,12.39
2022-11-26T14:38:27.335Z,12.46
2022-11-26T14:41:01.211Z,12.44
2022-11-26T14:44:08.813Z,12.44
2022-11-26T14:46:37.541Z,12.40
2022-11-26T14:49:20.841Z,12.37
2022-11-26T14:51:53.419Z,12.25
2022-11-26T14:54:29.345Z,12.26
2022-11-26T14:57:06.159Z,12.26
2022-11-26T14:59:35.789Z,12.21
2022-11-26T15:02:28.575Z,12.20
2022-11-26T15:05:05.640Z,12.14
2022-11-26T15:07:33.939Z,12.07
2022-11-26T15:10:05.010Z,12.04
2022-11-26T15:12:34.641Z,11.99
2022-11-26T15:15:06.005Z,12.01
2022-11-26T15:17:35.370Z,11.95
2022-11-26T15:20:08.772Z,11.91
2022-11-26T15:22:40.544Z,11.81
2022-11-26T15:25:18.159Z,11.80
2022-11-26T15:27:59.084Z,11.77
2022-11-26T15:30:31.142Z,11.73
2022-11-26T15:33:02.102Z,11.67
2022-11-26T15:35:39.793Z,11.64
2022-11-26T15:38:13.613Z,11.59
2022-11-26T15:40:48.465Z,11.54
2022-11-26T15:43:25.771Z,11.51
2022-11-26T15:45:58.896Z,11.48
2022-11-26T15:48:50.870Z,11.49
2022-11-26T15:51:30.694Z,11.45
2022-11-26T15:54:03.105Z,11.41
2022-11-26T15:56:35.169Z,11.42
2022-11-26T15:59:14.483Z,11.37
2022-11-26T16:01:47.798Z,11.32
2022-11-26T16:04:43.294Z,11.28
2022-11-26T16:07:17.594Z,11.23
2022-11-26T16:09:47.461Z,11.16
2022-11-26T16:12:32.435Z,11.17
2022-11-26T16:15:21.527Z,11.17
2022-11-26T16:17:52.165Z,11.16
2022-11-26T16:20:23.593Z,11.12
2022-11-26T16:22:54.629Z,11.09
2022-11-26T16:25:26.164Z,11.09
2022-11-26T16:28:07.294Z,11.09
2022-11-26T16:30:36.097Z,11.07
2022-11-26T16:33:07.144Z,11.01
2022-11-26T16:35:51.195Z,10.96
2022-11-26T16:38:21.505Z,10.93
2022-11-26T16:40:50.570Z,10.98
2022-11-26T16:43:19.379Z,10.99
2022-11-26T16:45:48.704Z,10.93
2022-11-26T16:48:26.760Z,10.96
2022-11-26T16:50:56.782Z,10.95
2022-11-26T16:53:25.162Z,10.89
2022-11-26T16:55:54.615Z,10.83
2022-11-26T16:58:28.967Z,10.85
2022-11-26T17:00:58.276Z,10.87
2022-11-26T17:03:32.724Z,10.82
2022-11-26T17:06:05.486Z,10.77
2022-11-26T17:08:35.247Z,10.77
2022-11-26T17:11:03.424Z,10.74
2022-11-26T17:13:31.644Z,10.73
2022-11-26T17:16:03.048Z,10.69
2022-11-26T17:18:33.041Z,10.71
2022-11-26T17:21:01.334Z,10.72
2022-11-26T17:23:29.441Z,10.72
2022-11-26T17:25:57.736Z,10.70
2022-11-26T17:28:26.545Z,10.67
2022-11-26T17:30:55.875Z,10.67
2022-11-26T17:33:24.039Z,10.67
2022-11-26T17:35:53.542Z,10.70
2022-11-26T17:38:22.779Z,10.67
2022-11-26T17:40:50.909Z,10.72
2022-11-26T17:43:19.025Z,10.71
2022-11-26T17:45:47.217Z,10.64
2022-11-26T17:48:15.484Z,10.58
2022-11-26T17:50:43.690Z,10.54
2022-11-26T17:53:13.209Z,10.54
2022-11-26T17:55:41.434Z,10.46
2022-11-26T17:58:12.143Z,10.44
2022-11-26T18:00:40.383Z,10.36
2022-11-26T18:03:08.760Z,10.40
2022-11-26T18:05:41.789Z,10.40
2022-11-26T18:08:10.274Z,10.43
2022-11-26T18:10:41.972Z,10.42
2022-11-26T18:13:10.314Z,10.39
2022-11-26T18:15:38.430Z,10.38
2022-11-26T18:18:07.544Z,10.39
2022-11-26T18:20:35.834Z,10.38
2022-11-26T18:23:04.077Z,10.35
2022-11-26T18:25:34.691Z,10.33
2022-11-26T18:28:04.207Z,10.26
2022-11-26T18:30:32.385Z,10.28
2022-11-26T18:33:01.713Z,10.32
2022-11-26T18:35:29.901Z,10.28
2022-11-26T18:37:59.464Z,10.22
2022-11-26T18:40:27.575Z,10.23
2022-11-26T18:42:55.945Z,10.23
2022-11-26T18:45:25.428Z,10.27
2022-11-26T18:47:53.629Z,10.26
2022-11-26T18:50:21.867Z,10.23
2022-11-26T18:52:49.976Z,10.22
2022-11-26T18:55:18.900Z,10.22
2022-11-26T18:57:46.989Z,10.20
2022-11-26T19:00:16.834Z,10.18
2022-11-26T19:02:46.348Z,10.19
2022-11-26T19:05:15.006Z,10.17
2022-11-26T19:07:43.245Z,10.16
2022-11-26T19:13:05.706Z,10.12
2022-11-26T19:15:34.515Z,10.08
2022-11-26T19:18:03.965Z,10.05
2022-11-26T19:20:32.143Z,10.04
2022-11-26T19:23:00.221Z,10.03
2022-11-26T19:25:30.173Z,10.10
2022-11-26T19:28:03.455Z,10.07
2022-11-26T19:30:33.116Z,10.07
2022-11-26T19:33:02.766Z,10.04
2022-11-26T19:35:30.895Z,10.00
2022-11-26T19:37:59.146Z,10.00
2022-11-26T19:40:27.599Z,9.98
2022-11-26T19:42:55.853Z,9.93
2022-11-26T19:45:24.668Z,9.88
2022-11-26T19:47:52.923Z,9.86
2022-11-26T19:50:22.407Z,9.86
2022-11-26T19:52:50.676Z,9.86
2022-11-26T19:55:18.972Z,9.90
2022-11-26T19:57:47.129Z,9.89
2022-11-26T20:00:26.055Z,9.90
2022-11-26T20:02:54.321Z,9.88
2022-11-26T20:05:23.874Z,9.98
2022-11-26T20:07:52.071Z,9.96
2022-11-26T20:10:20.693Z,9.91
2022-11-26T20:12:48.793Z,9.84
2022-11-26T20:15:18.198Z,9.86
2022-11-26T20:17:46.305Z,9.90
2022-11-26T20:20:14.644Z,9.87
2022-11-26T20:22:44.118Z,9.84
2022-11-26T20:25:15.305Z,9.84
2022-11-26T20:27:49.661Z,9.75
2022-11-26T20:30:42.005Z,9.76
2022-11-26T20:33:11.761Z,9.67
2022-11-26T20:35:41.430Z,9.75
2022-11-26T20:38:11.189Z,9.74
2022-11-26T20:40:40.999Z,9.63
2022-11-26T20:43:09.305Z,9.51
2022-11-26T20:45:38.001Z,9.44
2022-11-26T20:48:06.555Z,9.45
2022-11-26T20:50:34.767Z,9.44
2022-11-26T20:53:02.922Z,9.51
2022-11-26T20:55:32.435Z,9.43
2022-11-26T20:58:00.576Z,9.38
2022-11-26T21:00:28.665Z,9.31
2022-11-26T21:02:56.983Z,9.23
2022-11-26T21:05:25.691Z,9.23
2022-11-26T21:07:53.882Z,9.18
2022-11-26T21:10:25.142Z,9.16
2022-11-26T21:12:54.644Z,9.17
2022-11-26T21:15:23.613Z,9.19
2022-11-26T21:17:52.566Z,9.23
2022-11-26T21:20:20.702Z,9.17
2022-11-26T21:22:48.863Z,9.09
2022-11-26T21:25:17.088Z,9.04
2022-11-26T21:27:45.223Z,9.03
2022-11-26T21:30:16.705Z,9.11
2022-11-26T21:32:44.878Z,9.03
2022-11-26T21:35:12.959Z,9.01
2022-11-26T21:37:41.040Z,8.88
2022-11-26T21:40:11.249Z,8.87
2022-11-26T21:42:39.376Z,8.87
2022-11-26T21:45:09.280Z,8.79
2022-11-26T21:47:38.745Z,8.74
2022-11-26T21:50:10.564Z,8.65
2022-11-26T21:52:39.088Z,8.59
2022-11-26T21:55:33.057Z,8.57
2022-11-26T21:58:03.147Z,8.59
2022-11-26T22:00:31.658Z,8.50
2022-11-26T22:03:11.309Z,8.44
2022-11-26T22:05:41.711Z,8.46
2022-11-26T22:08:10.079Z,8.42
2022-11-26T22:10:38.587Z,8.32
2022-11-26T22:13:12.407Z,8.33
2022-11-26T22:15:46.639Z,8.30
2022-11-26T22:18:16.189Z,8.32
2022-11-26T22:20:52.296Z,8.21
2022-11-26T22:23:26.849Z,8.22
2022-11-26T22:25:55.009Z,8.22
2022-11-26T22:28:28.483Z,8.32
2022-11-26T22:30:58.197Z,8.31
2022-11-26T22:33:27.725Z,8.29
2022-11-26T22:35:55.786Z,8.25
2022-11-26T22:38:23.941Z,8.35
2022-11-26T22:40:52.003Z,8.36
2022-11-26T22:43:20.134Z,8.20
2022-11-26T22:45:48.484Z,8.15
2022-11-26T22:48:16.607Z,8.09
2022-11-26T22:50:52.693Z,8.22
2022-11-26T22:53:21.157Z,8.22
2022-11-26T22:55:54.026Z,8.27
2022-11-26T22:58:23.087Z,8.20
2022-11-26T23:00:54.264Z,8.22
2022-11-26T23:03:22.462Z,8.14
2022-11-26T23:06:08.339Z,8.05
2022-11-26T23:08:37.445Z,8.06
2022-11-26T23:11:18.192Z,8.00
2022-11-26T23:13:48.277Z,7.98
2022-11-26T23:16:22.378Z,7.93
2022-11-26T23:18:51.563Z,7.91
2022-11-26T23:21:23.765Z,7.89
2022-11-26T23:23:52.991Z,7.84
2022-11-26T23:26:27.139Z,7.80
2022-11-26T23:28:57.757Z,7.71
2022-11-26T23:31:28.906Z,7.70
2022-11-26T23:33:57.395Z,7.67
2022-11-26T23:36:28.578Z,7.62
2022-11-26T23:38:59.713Z,7.69
2022-11-26T23:41:28.090Z,7.65
2022-11-26T23:43:56.409Z,7.68
2022-11-26T23:46:27.359Z,7.73
2022-11-26T23:48:56.003Z,7.75
2022-11-26T23:51:30.324Z,7.69
2022-11-26T23:53:58.609Z,7.62
2022-11-26T23:56:29.273Z,7.54
2022-11-26T23:59:02.401Z,7.47
